createdAt,value
2023-03-26T08:53:05.210Z,83.78
2023-03-26T08:53:37.855Z,83.62
2023-03-26T08:54:10.521Z,84.64
2023-03-26T08:54:43.213Z,83.41
2023-03-26T08:55:15.878Z,83.11
2023-03-26T08:55:48.562Z,82.69
2023-03-26T08:56:21.220Z,82.79
2023-03-26T08:56:53.955Z,83.20
2023-03-26T08:57:26.609Z,83.51
2023-03-26T08:57:59.280Z,83.41
2023-03-26T08:58:28.976Z,82.90
2023-03-26T08:59:01.636Z,83.31
2023-03-26T08:59:34.313Z,83.83
2023-03-26T09:00:06.975Z,84.34
2023-03-26T09:00:39.664Z,84.23
2023-03-26T09:01:12.326Z,83.20
2023-03-26T09:01:45.031Z,83.00
2023-03-26T09:02:17.714Z,83.51
2023-03-26T09:02:50.385Z,84.34
2023-03-26T09:03:23.074Z,84.13
2023-03-26T09:03:55.776Z,82.90
2023-03-26T09:04:28.455Z,83.00
2023-03-26T09:05:01.196Z,83.51
2023-03-26T09:05:28.120Z,83.72
2023-03-26T09:06:00.809Z,84.23
2023-03-26T09:06:33.472Z,83.51
2023-03-26T09:07:06.133Z,83.83
2023-03-26T09:07:38.820Z,84.13
2023-03-26T09:08:11.503Z,83.51
2023-03-26T09:08:54.292Z,83.11
2023-03-26T09:09:19.300Z,83.51
2023-03-26T09:09:45.681Z,83.00
2023-03-26T09:10:18.354Z,82.39
2023-03-26T09:10:51.023Z,82.69
2023-03-26T09:11:23.700Z,83.00
2023-03-26T09:11:56.377Z,82.18
2023-03-26T09:12:29.062Z,82.39
2023-03-26T09:13:01.719Z,83.51
2023-03-26T09:13:34.378Z,83.83
2023-03-26T09:14:07.058Z,84.34
2023-03-26T09:14:39.727Z,84.95
2023-03-26T09:15:12.399Z,84.95
2023-03-26T09:15:45.072Z,85.06
2023-03-26T09:16:17.771Z,84.44
2023-03-26T09:16:50.439Z,83.11
2023-03-26T09:17:23.187Z,83.11
2023-03-26T09:17:57.869Z,83.65
2023-03-26T09:18:24.301Z,84.48
2023-03-26T09:18:56.957Z,85.30
2023-03-26T09:19:29.652Z,85.71
2023-03-26T09:20:02.347Z,86.23
2023-03-26T09:20:35.000Z,86.95
2023-03-26T09:21:07.654Z,86.43
2023-03-26T09:21:40.328Z,86.64
2023-03-26T09:22:12.985Z,86.64
2023-03-26T09:22:45.664Z,87.05
2023-03-26T09:23:18.341Z,87.57
2023-03-26T09:23:50.984Z,87.87
2023-03-26T09:24:23.669Z,87.67
2023-03-26T09:24:56.336Z,87.67
2023-03-26T09:25:29.005Z,88.08
2023-03-26T09:26:01.681Z,88.59
2023-03-26T09:26:34.350Z,88.90
2023-03-26T09:27:07.040Z,88.59
2023-03-26T09:27:39.705Z,88.90
2023-03-26T09:28:12.386Z,89.01
2023-03-26T09:28:45.053Z,89.05
2023-03-26T09:29:17.727Z,89.36
2023-03-26T09:29:50.403Z,89.77
2023-03-26T09:30:23.074Z,89.87
2023-03-26T09:30:55.928Z,90.39
2023-03-26T09:31:22.321Z,90.69
2023-03-26T09:31:55.052Z,90.43
2023-03-26T09:32:27.738Z,90.53
2023-03-26T09:33:00.423Z,90.84
2023-03-26T09:33:33.198Z,91.46
2023-03-26T09:34:05.862Z,91.46
2023-03-26T09:34:38.554Z,91.15
2023-03-26T09:35:13.069Z,91.15
2023-03-26T09:35:39.747Z,91.15
2023-03-26T09:36:12.403Z,90.84
2023-03-26T09:36:45.073Z,90.78
2023-03-26T09:37:17.762Z,91.09
2023-03-26T09:37:57.574Z,91.71
2023-03-26T09:38:22.543Z,92.53
2023-03-26T09:38:48.689Z,92.94
2023-03-26T09:39:21.364Z,93.25
2023-03-26T09:39:54.063Z,93.25
2023-03-26T09:40:26.719Z,93.01
2023-03-26T09:40:59.389Z,93.15
2023-03-26T09:41:32.065Z,93.15
2023-03-26T09:42:04.836Z,93.35
2023-03-26T09:42:37.497Z,93.21
2023-03-26T09:43:10.153Z,93.31
2023-03-26T09:43:42.834Z,93.73
2023-03-26T09:44:15.508Z,93.93
2023-03-26T09:44:48.170Z,94.03
2023-03-26T09:45:20.842Z,93.21
2023-03-26T09:45:53.558Z,92.90
2023-03-26T09:46:26.197Z,92.80
2023-03-26T09:46:58.871Z,93.01
2023-03-26T09:47:31.548Z,92.69
2023-03-26T09:48:04.219Z,92.38
2023-03-26T09:48:36.900Z,92.29
2023-03-26T09:49:09.606Z,92.80
2023-03-26T09:49:42.262Z,93.11
2023-03-26T09:50:14.934Z,93.11
2023-03-26T09:50:47.614Z,92.55
2023-03-26T09:51:20.261Z,92.14
2023-03-26T09:51:52.933Z,91.05
2023-03-26T09:52:25.614Z,90.64
2023-03-26T09:52:58.291Z,90.94
2023-03-26T09:53:30.965Z,91.52
2023-03-26T09:54:03.613Z,91.87
2023-03-26T09:54:36.296Z,91.87
2023-03-26T09:55:08.979Z,91.72
2023-03-26T09:55:41.657Z,90.73
2023-03-26T09:56:14.329Z,90.12
2023-03-26T09:56:47.013Z,89.40
2023-03-26T09:57:19.718Z,89.65
2023-03-26T09:57:52.404Z,90.26
2023-03-26T09:58:25.034Z,90.99
2023-03-26T09:58:56.124Z,91.50
2023-03-26T09:59:28.814Z,91.71
2023-03-26T10:00:01.487Z,91.60
2023-03-26T10:00:34.160Z,92.08
2023-03-26T10:01:06.846Z,93.11
2023-03-26T10:01:39.539Z,93.73
2023-03-26T10:02:12.192Z,94.13
2023-03-26T10:02:46.234Z,94.24
2023-03-26T10:03:15.975Z,94.03
2023-03-26T10:03:48.646Z,93.62
2023-03-26T10:04:21.382Z,92.18
2023-03-26T10:04:54.070Z,91.46
2023-03-26T10:05:26.721Z,90.33
2023-03-26T10:05:59.385Z,90.22
2023-03-26T10:06:32.051Z,90.94
2023-03-26T10:07:04.713Z,91.87
2023-03-26T10:07:37.388Z,92.34
2023-03-26T10:08:10.064Z,92.76
2023-03-26T10:08:42.749Z,92.34
2023-03-26T10:09:15.395Z,92.14
2023-03-26T10:09:48.066Z,92.03
2023-03-26T10:10:20.742Z,91.93
2023-03-26T10:10:53.655Z,91.93
2023-03-26T10:11:20.113Z,91.93
2023-03-26T10:11:52.771Z,92.03
2023-03-26T10:12:25.435Z,91.83
2023-03-26T10:13:08.315Z,91.00
2023-03-26T10:13:30.187Z,90.28
2023-03-26T10:13:56.359Z,90.49
2023-03-26T10:14:29.049Z,90.28
2023-03-26T10:15:00.135Z,89.67
2023-03-26T10:15:32.817Z,89.77
2023-03-26T10:16:05.492Z,89.87
2023-03-26T10:16:38.202Z,89.87
2023-03-26T10:17:10.853Z,90.08
2023-03-26T10:17:43.588Z,90.59
2023-03-26T10:18:27.756Z,91.11
2023-03-26T10:18:46.851Z,91.31
2023-03-26T10:19:13.019Z,91.52
2023-03-26T10:19:45.694Z,91.83
2023-03-26T10:20:18.381Z,92.03
2023-03-26T10:20:51.050Z,92.14
2023-03-26T10:21:26.159Z,91.72
2023-03-26T10:21:53.579Z,91.83
2023-03-26T10:22:26.238Z,92.24
2023-03-26T10:22:58.972Z,92.20
2023-03-26T10:23:31.645Z,92.14
2023-03-26T10:24:04.348Z,90.90
2023-03-26T10:24:37.006Z,89.97
2023-03-26T10:25:09.697Z,89.46
2023-03-26T10:25:42.384Z,89.87
2023-03-26T10:26:15.025Z,90.80
2023-03-26T10:27:10.368Z,90.80
2023-03-26T10:27:19.799Z,90.90
2023-03-26T10:27:45.985Z,91.06
2023-03-26T10:28:18.645Z,91.58
2023-03-26T10:28:51.323Z,91.17
2023-03-26T10:29:24.044Z,90.14
2023-03-26T10:29:56.709Z,89.94
2023-03-26T10:30:29.440Z,90.45
2023-03-26T10:31:02.194Z,90.66
2023-03-26T10:31:34.887Z,90.86
2023-03-26T10:32:07.704Z,90.24
2023-03-26T10:32:40.360Z,90.24
2023-03-26T10:33:13.008Z,90.45
2023-03-26T10:33:45.686Z,90.41
2023-03-26T10:34:28.092Z,90.72
2023-03-26T10:34:50.458Z,91.02
2023-03-26T10:35:16.685Z,90.72
2023-03-26T10:35:49.387Z,90.09
2023-03-26T10:36:22.021Z,89.89
2023-03-26T10:36:54.704Z,89.44
2023-03-26T10:37:27.363Z,90.26
2023-03-26T10:38:00.042Z,90.78
2023-03-26T10:38:27.699Z,90.47
2023-03-26T10:39:00.366Z,90.16
2023-03-26T10:39:36.259Z,89.64
2023-03-26T10:40:05.139Z,89.54
2023-03-26T10:40:31.440Z,89.34
2023-03-26T10:41:04.114Z,87.38
2023-03-26T10:41:36.804Z,86.46
2023-03-26T10:42:09.508Z,85.12
2023-03-26T10:42:42.170Z,84.50
2023-03-26T10:43:14.859Z,85.43
2023-03-26T10:43:57.854Z,85.74
2023-03-26T10:44:19.600Z,86.25
2023-03-26T10:44:45.787Z,86.46
2023-03-26T10:45:18.432Z,86.56
2023-03-26T10:45:51.178Z,86.05
2023-03-26T10:46:23.852Z,86.05
2023-03-26T10:46:56.527Z,86.15
2023-03-26T10:47:29.225Z,86.56
2023-03-26T10:48:01.918Z,86.77
2023-03-26T10:48:34.575Z,86.56
2023-03-26T10:49:07.282Z,85.74
2023-03-26T10:49:39.924Z,85.84
2023-03-26T10:50:12.599Z,86.15
2023-03-26T10:50:45.256Z,86.25
2023-03-26T10:51:17.920Z,86.15
2023-03-26T10:51:50.601Z,86.46
2023-03-26T10:52:23.253Z,85.12
2023-03-26T10:52:55.926Z,84.09
2023-03-26T10:53:28.679Z,83.48
2023-03-26T10:54:01.344Z,83.78
2023-03-26T10:54:34.029Z,84.81
2023-03-26T10:55:06.723Z,85.26
2023-03-26T10:55:39.374Z,84.44
2023-03-26T10:56:12.030Z,84.95
2023-03-26T10:56:44.738Z,85.98
2023-03-26T10:57:17.473Z,86.40
2023-03-26T10:57:50.134Z,85.63
2023-03-26T10:58:22.807Z,85.43
2023-03-26T10:58:55.481Z,85.33
2023-03-26T10:59:28.177Z,84.30
2023-03-26T11:00:00.863Z,83.89
2023-03-26T11:00:33.541Z,84.91
2023-03-26T11:01:06.489Z,85.74
2023-03-26T11:01:32.741Z,86.25
2023-03-26T11:02:05.417Z,86.77
2023-03-26T11:02:38.106Z,86.87
2023-03-26T11:03:10.843Z,86.05
2023-03-26T11:03:43.472Z,85.49
2023-03-26T11:04:16.471Z,84.88
2023-03-26T11:04:42.685Z,84.05
2023-03-26T11:05:15.362Z,84.26
2023-03-26T11:05:48.106Z,84.77
2023-03-26T11:06:20.771Z,83.95
2023-03-26T11:06:53.443Z,83.54
2023-03-26T11:07:26.110Z,82.71
2023-03-26T11:07:58.762Z,83.23
2023-03-26T11:08:32.371Z,82.00
2023-03-26T11:08:59.170Z,82.00
2023-03-26T11:09:31.851Z,82.20
2023-03-26T11:10:04.514Z,82.47
2023-03-26T11:10:37.263Z,82.99
2023-03-26T11:11:09.905Z,81.76
2023-03-26T11:11:42.568Z,82.06
2023-03-26T11:12:27.486Z,83.40
2023-03-26T11:12:47.330Z,84.94
2023-03-26T11:13:13.494Z,83.40
2023-03-26T11:13:46.161Z,80.73
2023-03-26T11:14:31.816Z,80.52
2023-03-26T11:14:50.934Z,81.65
2023-03-26T11:15:17.109Z,82.68
2023-03-26T11:15:49.826Z,81.86
2023-03-26T11:16:22.503Z,81.76
2023-03-26T11:16:55.154Z,81.96
2023-03-26T11:17:40.454Z,81.96
2023-03-26T11:17:59.974Z,81.24
2023-03-26T11:18:26.160Z,81.04
2023-03-26T11:18:57.210Z,81.10
2023-03-26T11:19:29.893Z,81.62
2023-03-26T11:20:02.568Z,82.03
2023-03-26T11:20:35.248Z,82.23
2023-03-26T11:21:19.090Z,81.51
2023-03-26T11:21:39.983Z,81.00
2023-03-26T11:22:06.187Z,80.86
2023-03-26T11:22:38.856Z,81.48
2023-03-26T11:23:11.520Z,81.57
2023-03-26T11:23:44.184Z,81.78
2023-03-26T11:24:16.846Z,81.57
2023-03-26T11:24:49.538Z,81.64
2023-03-26T11:25:22.219Z,81.64
2023-03-26T11:25:54.898Z,81.54
2023-03-26T11:26:27.541Z,80.21
2023-03-26T11:27:15.285Z,79.08
2023-03-26T11:27:32.315Z,80.00
2023-03-26T11:28:03.384Z,82.32
2023-03-26T11:28:36.055Z,81.91
2023-03-26T11:29:32.357Z,81.50
2023-03-26T11:29:40.823Z,81.40
2023-03-26T11:30:07.026Z,82.42
2023-03-26T11:30:39.682Z,81.81
2023-03-26T11:31:12.386Z,81.09
2023-03-26T11:31:43.474Z,81.87
2023-03-26T11:32:14.540Z,81.26
2023-03-26T11:32:47.268Z,81.77
2023-03-26T11:33:19.906Z,81.26
2023-03-26T11:33:54.133Z,81.52
2023-03-26T11:34:21.007Z,81.12
2023-03-26T11:34:53.687Z,80.30
2023-03-26T11:35:41.026Z,81.84
2023-03-26T11:35:58.463Z,78.76
2023-03-26T11:36:24.631Z,77.19
2023-03-26T11:36:57.282Z,74.63
2023-03-26T11:37:29.950Z,75.55
2023-03-26T11:38:02.631Z,77.60
2023-03-26T11:38:35.292Z,78.01
2023-03-26T11:39:08.026Z,78.83
2023-03-26T11:39:40.676Z,78.17
2023-03-26T11:40:13.352Z,77.26
2023-03-26T11:40:46.029Z,77.15
2023-03-26T11:41:23.044Z,78.49
2023-03-26T11:41:49.410Z,75.31
2023-03-26T11:42:22.081Z,74.66
2023-03-26T11:42:54.754Z,76.09
2023-03-26T11:43:27.429Z,76.61
2023-03-26T11:44:00.109Z,76.09
2023-03-26T11:44:32.790Z,74.76
2023-03-26T11:45:05.474Z,75.07
2023-03-26T11:45:38.112Z,76.61
2023-03-26T11:46:10.830Z,77.73
2023-03-26T11:46:43.537Z,76.61
2023-03-26T11:47:16.185Z,76.71
2023-03-26T11:47:48.898Z,75.48
2023-03-26T11:48:21.537Z,75.99
2023-03-26T11:48:54.210Z,76.40
2023-03-26T11:49:26.892Z,76.30
2023-03-26T11:49:59.581Z,74.84
2023-03-26T11:50:32.249Z,74.73
2023-03-26T11:51:04.916Z,74.22
2023-03-26T11:51:37.587Z,73.50
2023-03-26T11:52:10.260Z,73.54
2023-03-26T11:52:43.322Z,74.11
2023-03-26T11:53:09.891Z,74.11
2023-03-26T11:53:42.553Z,73.30
2023-03-26T11:54:15.219Z,73.40
2023-03-26T11:54:47.902Z,74.02
2023-03-26T11:55:20.579Z,72.41
2023-03-26T11:55:53.258Z,72.21
2023-03-26T11:56:25.956Z,73.54
2023-03-26T11:57:04.505Z,71.80
2023-03-26T11:57:30.719Z,72.92
2023-03-26T11:57:56.874Z,71.70
2023-03-26T11:58:29.547Z,71.80
2023-03-26T11:59:02.212Z,71.59
2023-03-26T11:59:41.973Z,72.21
2023-03-26T12:00:06.987Z,72.62
2023-03-26T12:00:33.154Z,71.59
2023-03-26T12:01:05.839Z,71.01
2023-03-26T12:01:38.545Z,70.81
2023-03-26T12:02:11.236Z,71.53
2023-03-26T12:02:43.926Z,73.36
2023-03-26T12:03:16.599Z,75.21
2023-03-26T12:03:49.252Z,74.08
2023-03-26T12:04:21.967Z,73.64
2023-03-26T12:04:54.663Z,72.62
2023-03-26T12:05:27.358Z,72.41
2023-03-26T12:06:00.032Z,72.92
2023-03-26T12:06:32.696Z,75.17
2023-03-26T12:07:05.359Z,74.35
2023-03-26T12:07:38.031Z,74.46
2023-03-26T12:08:10.710Z,75.04
2023-03-26T12:08:43.377Z,74.84
2023-03-26T12:09:16.035Z,74.52
2023-03-26T12:09:48.722Z,74.52
2023-03-26T12:10:21.373Z,72.58
2023-03-26T12:10:54.150Z,72.89
2023-03-26T12:11:26.885Z,72.07
2023-03-26T12:11:59.573Z,71.97
2023-03-26T12:12:32.234Z,72.48
2023-03-26T12:13:04.896Z,73.50
2023-03-26T12:13:37.561Z,73.20
2023-03-26T12:14:10.237Z,72.17
2023-03-26T12:14:42.910Z,71.87
2023-03-26T12:15:15.572Z,70.54
2023-03-26T12:15:48.247Z,69.82
2023-03-26T12:16:21.042Z,70.84
2023-03-26T12:16:54.712Z,71.73
2023-03-26T12:17:22.133Z,71.12
2023-03-26T12:17:54.237Z,70.71
2023-03-26T12:18:20.398Z,70.61
2023-03-26T12:18:53.069Z,70.57
2023-03-26T12:19:25.750Z,70.57
2023-03-26T12:19:58.422Z,70.98
2023-03-26T12:20:31.106Z,70.06
2023-03-26T12:21:03.791Z,71.19
2023-03-26T12:21:36.441Z,70.34
2023-03-26T12:22:09.121Z,71.67
2023-03-26T12:22:43.441Z,71.87
2023-03-26T12:23:09.927Z,70.81
2023-03-26T12:23:42.631Z,72.65
2023-03-26T12:24:15.283Z,71.84
2023-03-26T12:24:47.954Z,71.63
2023-03-26T12:25:20.683Z,69.18
2023-03-26T12:25:53.334Z,69.29
2023-03-26T12:26:25.993Z,70.07
2023-03-26T12:26:58.691Z,69.56
2023-03-26T12:27:31.404Z,69.15
2023-03-26T12:28:04.049Z,69.35
2023-03-26T12:28:36.710Z,69.96
2023-03-26T12:29:09.383Z,69.63
2023-03-26T12:29:42.066Z,68.81
2023-03-26T12:30:14.737Z,69.12
2023-03-26T12:30:47.404Z,70.24
2023-03-26T12:31:20.137Z,69.12
2023-03-26T12:31:52.884Z,68.61
2023-03-26T12:32:32.587Z,68.20
2023-03-26T12:32:57.698Z,66.97
2023-03-26T12:33:23.880Z,67.59
2023-03-26T12:33:58.078Z,68.40
2023-03-26T12:34:25.147Z,68.10
2023-03-26T12:34:57.821Z,67.18
2023-03-26T12:35:30.522Z,67.79
2023-03-26T12:36:03.235Z,68.71
2023-03-26T12:36:36.030Z,66.06
2023-03-26T12:37:08.719Z,65.95
2023-03-26T12:37:41.382Z,66.19
2023-03-26T12:38:14.063Z,66.19
2023-03-26T12:40:05.942Z,64.49
2023-03-26T12:40:07.369Z,64.31
2023-03-26T12:40:10.039Z,65.64
2023-03-26T12:40:23.086Z,66.49
2023-03-26T12:40:49.257Z,67.10
2023-03-26T12:43:40.324Z,68.43
2023-03-26T12:43:40.641Z,68.12
2023-03-26T12:44:46.499Z,68.74
2023-03-26T12:44:47.905Z,68.94
2023-03-26T12:44:51.244Z,68.12
2023-03-26T12:44:54.549Z,67.92
2023-03-26T12:44:56.466Z,67.92
2023-03-26T12:45:06.559Z,68.63
2023-03-26T12:45:32.724Z,66.90
2023-03-26T12:47:56.147Z,65.88
2023-03-26T12:47:58.312Z,66.69
2023-03-26T12:47:58.789Z,67.21
2023-03-26T12:48:00.658Z,67.51
2023-03-26T12:48:13.893Z,69.04
2023-03-26T12:48:40.200Z,69.24
2023-03-26T12:49:13.019Z,68.12
2023-03-26T12:49:45.790Z,68.02
2023-03-26T12:50:18.488Z,67.61
2023-03-26T12:50:50.596Z,68.33
2023-03-26T12:51:21.667Z,68.23
2023-03-26T12:51:54.329Z,67.92
2023-03-26T12:52:26.997Z,68.23
2023-03-26T12:52:59.668Z,70.27
2023-03-26T12:53:32.339Z,70.27
2023-03-26T12:54:04.992Z,69.35
2023-03-26T12:54:37.718Z,68.23
2023-03-26T12:55:12.303Z,68.33
2023-03-26T12:55:38.656Z,68.02
2023-03-26T12:56:11.326Z,67.21
2023-03-26T12:56:44.033Z,66.39
2023-03-26T12:57:16.706Z,66.28
2023-03-26T12:57:50.933Z,66.18
2023-03-26T12:58:17.635Z,67.51
2023-03-26T12:58:50.267Z,68.63
2023-03-26T12:59:22.937Z,68.74
2023-03-26T12:59:55.613Z,69.35
2023-03-26T13:00:28.289Z,68.53
2023-03-26T13:01:00.984Z,68.23
2023-03-26T13:01:33.651Z,66.49
2023-03-26T13:02:06.478Z,67.00
2023-03-26T13:02:39.197Z,67.99
2023-03-26T13:03:10.354Z,66.08
2023-03-26T13:03:43.050Z,66.46
2023-03-26T13:04:15.715Z,67.18
2023-03-26T13:04:58.640Z,69.01
2023-03-26T13:05:20.475Z,68.77
2023-03-26T13:05:46.671Z,67.55
2023-03-26T13:06:19.330Z,65.92
2023-03-26T13:07:01.034Z,66.42
2023-03-26T13:07:24.087Z,65.51
2023-03-26T13:07:50.307Z,65.99
2023-03-26T13:08:22.980Z,65.28
2023-03-26T13:08:55.650Z,64.76
2023-03-26T13:09:28.332Z,65.68
2023-03-26T13:10:01.032Z,66.70
2023-03-26T13:10:33.697Z,67.21
2023-03-26T13:11:06.365Z,65.99
2023-03-26T13:11:39.033Z,63.95
2023-03-26T13:12:11.693Z,63.34
2023-03-26T13:12:44.372Z,65.68
2023-03-26T13:13:17.034Z,63.85
2023-03-26T13:13:49.728Z,62.32
2023-03-26T13:14:22.377Z,62.32
2023-03-26T13:14:55.052Z,63.13
2023-03-26T13:15:27.711Z,62.96
2023-03-26T13:16:00.387Z,64.08
2023-03-26T13:16:33.062Z,65.00
2023-03-26T13:17:05.793Z,64.69
2023-03-26T13:17:38.534Z,63.87
2023-03-26T13:18:09.567Z,61.53
2023-03-26T13:18:42.233Z,62.76
2023-03-26T13:19:14.908Z,63.37
2023-03-26T13:19:47.580Z,65.81
2023-03-26T13:20:20.257Z,63.95
2023-03-26T13:20:52.997Z,64.46
2023-03-26T13:21:25.667Z,63.13
2023-03-26T13:21:58.328Z,63.95
2023-03-26T13:22:31.004Z,63.54
2023-03-26T13:23:03.670Z,62.82
2023-03-26T13:23:36.352Z,63.75
2023-03-26T13:24:09.019Z,62.62
2023-03-26T13:24:41.686Z,63.13
2023-03-26T13:25:14.359Z,65.07
2023-03-26T13:25:47.017Z,63.44
2023-03-26T13:26:19.690Z,62.52
2023-03-26T13:26:52.376Z,61.40
2023-03-26T13:27:25.033Z,60.99
2023-03-26T13:27:57.708Z,61.09
2023-03-26T13:28:30.374Z,61.68
2023-03-26T13:29:03.070Z,61.71
2023-03-26T13:29:35.765Z,61.98
2023-03-26T13:30:08.486Z,62.59
2023-03-26T13:30:41.152Z,63.41
2023-03-26T13:31:13.879Z,63.20
2023-03-26T13:31:46.544Z,62.90
2023-03-26T13:32:19.229Z,63.41
2023-03-26T13:32:51.965Z,63.41
2023-03-26T13:33:24.671Z,63.71
2023-03-26T13:33:57.361Z,63.51
2023-03-26T13:34:30.009Z,61.98
2023-03-26T13:35:02.681Z,61.37
2023-03-26T13:35:35.404Z,60.96
2023-03-26T13:36:22.434Z,63.51
2023-03-26T13:36:39.211Z,63.44
2023-03-26T13:37:11.925Z,63.64
2023-03-26T13:37:44.590Z,63.23
2023-03-26T13:38:17.281Z,63.95
2023-03-26T13:38:59.097Z,63.75
2023-03-26T13:39:22.025Z,64.87
2023-03-26T13:39:48.195Z,63.13
2023-03-26T13:40:20.863Z,61.32
2023-03-26T13:40:53.836Z,61.43
2023-03-26T13:41:20.088Z,61.43
2023-03-26T13:41:52.767Z,61.53
2023-03-26T13:42:25.445Z,63.16
2023-03-26T13:42:58.112Z,64.39
2023-03-26T13:43:30.782Z,62.65
2023-03-26T13:44:03.446Z,61.35
2023-03-26T13:44:36.137Z,61.79
2023-03-26T13:45:08.784Z,61.99
2023-03-26T13:45:41.458Z,62.81
2023-03-26T13:46:14.162Z,63.93
2023-03-26T13:46:46.846Z,65.47
2023-03-26T13:47:19.557Z,63.76
2023-03-26T13:47:52.287Z,63.25
2023-03-26T13:48:24.967Z,63.56
2023-03-26T13:48:57.643Z,64.27
2023-03-26T13:49:30.307Z,65.06
2023-03-26T13:50:02.982Z,63.45
2023-03-26T13:50:35.637Z,63.45
2023-03-26T13:51:08.313Z,64.17
2023-03-26T13:51:40.986Z,64.48
2023-03-26T13:52:13.662Z,65.30
2023-03-26T13:52:46.372Z,62.84
2023-03-26T13:53:19.423Z,63.25
2023-03-26T13:53:45.777Z,62.63
2023-03-26T13:54:18.440Z,62.95
2023-03-26T13:54:51.136Z,63.86
2023-03-26T13:55:23.780Z,64.27
2023-03-26T13:55:56.454Z,64.89
2023-03-26T13:56:29.118Z,64.48
2023-03-26T13:57:01.816Z,65.60
2023-03-26T13:57:34.476Z,66.42
2023-03-26T13:58:07.164Z,65.30
2023-03-26T13:58:39.834Z,64.99
2023-03-26T13:59:12.503Z,64.27
2023-03-26T13:59:45.208Z,63.86
2023-03-26T14:00:17.868Z,63.56
2023-03-26T14:00:50.523Z,62.84
2023-03-26T14:01:23.264Z,64.68
2023-03-26T14:01:56.036Z,63.86
2023-03-26T14:02:28.766Z,63.96
2023-03-26T14:03:01.494Z,64.07
2023-03-26T14:03:34.191Z,64.17
2023-03-26T14:04:06.928Z,65.09
2023-03-26T14:04:39.599Z,65.60
2023-03-26T14:05:12.272Z,65.40
2023-03-26T14:05:44.951Z,65.50
2023-03-26T14:06:17.608Z,65.40
2023-03-26T14:06:50.274Z,64.48
2023-03-26T14:07:22.952Z,63.86
2023-03-26T14:07:55.607Z,62.84
2023-03-26T14:08:28.278Z,63.15
2023-03-26T14:09:00.959Z,63.76
2023-03-26T14:09:33.619Z,63.76
2023-03-26T14:10:06.299Z,63.35
2023-03-26T14:10:38.948Z,63.66
2023-03-26T14:11:11.656Z,63.96
2023-03-26T14:11:44.301Z,63.25
2023-03-26T14:12:20.876Z,62.43
2023-03-26T14:12:48.026Z,62.54
2023-03-26T14:13:20.694Z,62.74
2023-03-26T14:13:53.368Z,62.02
2023-03-26T14:14:26.056Z,62.54
2023-03-26T14:14:58.747Z,63.25
2023-03-26T14:15:31.392Z,63.45
2023-03-26T14:16:04.094Z,63.25
2023-03-26T14:16:36.816Z,63.76
2023-03-26T14:17:09.474Z,66.11
2023-03-26T14:17:42.163Z,66.83
2023-03-26T14:18:14.943Z,65.91
2023-03-26T14:18:47.669Z,65.30
2023-03-26T14:19:20.332Z,64.07
2023-03-26T14:19:52.999Z,64.99
2023-03-26T14:20:25.675Z,65.70
2023-03-26T14:20:58.344Z,65.80
2023-03-26T14:21:31.012Z,65.50
2023-03-26T14:22:03.690Z,65.60
2023-03-26T14:22:36.355Z,64.17
2023-03-26T14:23:09.032Z,63.86
2023-03-26T14:23:41.696Z,64.27
2023-03-26T14:24:14.362Z,64.27
2023-03-26T14:24:47.043Z,65.60
2023-03-26T14:25:19.761Z,65.09
2023-03-26T14:25:52.394Z,64.68
2023-03-26T14:26:25.061Z,64.17
2023-03-26T14:26:57.742Z,64.58
2023-03-26T14:27:30.399Z,64.27
2023-03-26T14:28:03.084Z,64.58
2023-03-26T14:28:35.743Z,64.58
2023-03-26T14:29:08.393Z,63.35
2023-03-26T14:29:41.080Z,63.04
2023-03-26T14:30:13.212Z,63.15
2023-03-26T14:30:39.346Z,63.25
2023-03-26T14:31:12.106Z,62.87
2023-03-26T14:31:44.835Z,63.28
2023-03-26T14:32:24.417Z,63.69
2023-03-26T14:32:49.640Z,64.40
2023-03-26T14:33:15.788Z,64.61
2023-03-26T14:33:47.874Z,66.25
2023-03-26T14:34:14.042Z,66.35
2023-03-26T14:34:46.750Z,65.63
2023-03-26T14:35:19.528Z,64.30
2023-03-26T14:35:52.198Z,64.81
2023-03-26T14:36:24.874Z,64.40
2023-03-26T14:36:57.538Z,64.71
2023-03-26T14:37:30.200Z,64.71
2023-03-26T14:38:02.872Z,65.63
2023-03-26T14:38:35.550Z,66.25
2023-03-26T14:39:08.212Z,67.57
2023-03-26T14:39:40.870Z,66.86
2023-03-26T14:40:13.550Z,67.07
2023-03-26T14:40:46.231Z,67.78
2023-03-26T14:41:18.914Z,67.07
2023-03-26T14:41:51.588Z,66.75
2023-03-26T14:42:24.277Z,67.37
2023-03-26T14:42:56.907Z,67.37
2023-03-26T14:43:29.587Z,67.78
2023-03-26T14:44:02.254Z,66.14
2023-03-26T14:44:47.845Z,65.53
2023-03-26T14:45:07.025Z,65.94
2023-03-26T14:45:33.249Z,65.22
2023-03-26T14:46:05.914Z,64.61
2023-03-26T14:46:38.633Z,64.92
2023-03-26T14:47:11.426Z,65.02
2023-03-26T14:47:41.094Z,65.22
2023-03-26T14:48:13.865Z,64.40
2023-03-26T14:48:46.519Z,62.66
2023-03-26T14:49:19.190Z,63.39
2023-03-26T14:49:51.868Z,64.20
2023-03-26T14:50:24.555Z,63.69
2023-03-26T14:50:57.431Z,63.62
2023-03-26T14:51:30.207Z,64.13
2023-03-26T14:52:02.913Z,65.12
2023-03-26T14:52:35.565Z,65.73
2023-03-26T14:53:08.213Z,65.25
2023-03-26T14:53:40.886Z,65.15
2023-03-26T14:54:13.546Z,63.92
2023-03-26T14:54:46.222Z,66.69
2023-03-26T14:55:18.929Z,66.99
2023-03-26T14:55:51.574Z,65.87
2023-03-26T14:56:24.256Z,65.66
2023-03-26T14:56:56.977Z,65.97
2023-03-26T14:57:29.652Z,65.46
2023-03-26T14:58:02.317Z,65.66
2023-03-26T14:58:34.985Z,66.07
2023-03-26T14:59:07.656Z,65.46
2023-03-26T14:59:40.345Z,65.56
2023-03-26T15:00:13.001Z,65.36
2023-03-26T15:00:45.867Z,65.36
2023-03-26T15:01:18.617Z,65.36
2023-03-26T15:01:51.321Z,64.74
2023-03-26T15:02:24.094Z,64.54
2023-03-26T15:02:56.913Z,64.84
2023-03-26T15:03:29.590Z,65.87
2023-03-26T15:04:02.236Z,66.48
2023-03-26T15:04:34.904Z,66.58
2023-03-26T15:05:07.586Z,66.38
2023-03-26T15:05:40.272Z,66.99
2023-03-26T15:06:12.935Z,65.46
2023-03-26T15:06:45.596Z,64.95
2023-03-26T15:07:18.262Z,64.84
2023-03-26T15:07:50.934Z,65.36
2023-03-26T15:08:23.616Z,65.36
2023-03-26T15:08:55.716Z,65.08
2023-03-26T15:09:21.896Z,65.08
2023-03-26T15:09:54.561Z,65.08
2023-03-26T15:10:27.224Z,65.18
2023-03-26T15:10:59.910Z,64.87
2023-03-26T15:11:32.587Z,65.39
2023-03-26T15:12:12.452Z,65.80
2023-03-26T15:12:37.352Z,66.20
2023-03-26T15:13:03.540Z,66.31
2023-03-26T15:13:36.204Z,65.28
2023-03-26T15:14:08.868Z,65.42
2023-03-26T15:14:41.545Z,65.52
2023-03-26T15:15:14.208Z,65.93
2023-03-26T15:15:46.881Z,66.34
2023-03-26T15:16:18.190Z,66.44
2023-03-26T15:16:50.961Z,66.13
2023-03-26T15:17:23.734Z,66.44
2023-03-26T15:17:56.464Z,66.95
2023-03-26T15:18:29.124Z,66.24
2023-03-26T15:19:01.795Z,66.13
2023-03-26T15:19:34.463Z,66.13
2023-03-26T15:20:07.145Z,65.52
2023-03-26T15:20:39.795Z,65.83
2023-03-26T15:21:12.459Z,66.34
2023-03-26T15:21:45.117Z,65.72
2023-03-26T15:22:17.824Z,66.24
2023-03-26T15:22:50.481Z,66.95
2023-03-26T15:23:23.149Z,66.13
2023-03-26T15:23:55.824Z,65.52
2023-03-26T15:24:26.918Z,65.93
2023-03-26T15:24:59.581Z,65.52
2023-03-26T15:25:32.289Z,65.21
2023-03-26T15:26:04.935Z,64.42
2023-03-26T15:26:37.614Z,64.22
2023-03-26T15:27:10.284Z,64.94
2023-03-26T15:27:42.962Z,65.45
2023-03-26T15:28:15.632Z,65.45
2023-03-26T15:28:48.305Z,65.65
2023-03-26T15:29:20.971Z,65.55
2023-03-26T15:29:53.627Z,65.04
2023-03-26T15:30:27.048Z,64.32
2023-03-26T15:30:53.556Z,63.91
2023-03-26T15:31:19.912Z,64.12
2023-03-26T15:31:52.632Z,64.32
2023-03-26T15:32:25.338Z,64.42
2023-03-26T15:32:58.019Z,64.94
2023-03-26T15:33:30.667Z,65.75
2023-03-26T15:34:03.333Z,66.88
2023-03-26T15:34:35.998Z,66.88
2023-03-26T15:35:08.666Z,66.64
2023-03-26T15:35:41.529Z,65.83
2023-03-26T15:36:08.109Z,64.80
2023-03-26T15:36:40.776Z,64.70
2023-03-26T15:37:13.433Z,65.55
2023-03-26T15:37:46.125Z,65.04
2023-03-26T15:38:18.779Z,64.32
2023-03-26T15:38:51.448Z,64.83
2023-03-26T15:39:24.135Z,65.86
2023-03-26T15:39:59.544Z,65.96
2023-03-26T15:40:26.505Z,65.55
2023-03-26T15:40:59.267Z,65.34
2023-03-26T15:41:31.933Z,66.27
2023-03-26T15:42:03.033Z,65.96
2023-03-26T15:42:37.746Z,65.65
2023-03-26T15:43:04.322Z,65.75
2023-03-26T15:43:36.990Z,65.96
2023-03-26T15:44:23.971Z,65.75
2023-03-26T15:44:53.199Z,65.75
2023-03-26T15:45:13.855Z,65.24
2023-03-26T15:45:40.054Z,65.24
2023-03-26T15:46:12.738Z,65.75
2023-03-26T15:46:45.416Z,66.16
2023-03-26T15:47:18.186Z,65.96